createdAt,value
2022-10-07T00:02:18.460Z,15.09
2022-10-07T00:04:47.979Z,15.09
2022-10-07T00:07:16.990Z,14.85
2022-10-07T00:09:46.077Z,15.08
2022-10-07T00:12:15.118Z,15.03
2022-10-07T00:14:44.218Z,15.21
2022-10-07T00:17:13.353Z,15.22
2022-10-07T00:19:42.443Z,15.04
2022-10-07T00:22:11.501Z,15.20
2022-10-07T00:24:40.779Z,15.16
2022-10-07T00:27:09.923Z,15.12
2022-10-07T00:29:38.944Z,15.11
2022-10-07T00:32:07.966Z,15.11
2022-10-07T00:34:37.052Z,15.15
2022-10-07T00:37:06.049Z,15.08
2022-10-07T00:39:35.033Z,15.09
2022-10-07T00:42:04.026Z,15.14
2022-10-07T00:44:48.322Z,14.99
2022-10-07T00:47:36.019Z,14.95
2022-10-07T00:50:07.863Z,15.07
2022-10-07T00:52:55.084Z,14.90
2022-10-07T00:55:27.587Z,14.92
2022-10-07T00:57:59.547Z,14.96
2022-10-07T01:00:28.610Z,14.96
2022-10-07T01:02:57.699Z,14.62
2022-10-07T01:05:26.666Z,14.62
2022-10-07T01:07:59.057Z,14.78
2022-10-07T01:10:29.574Z,14.85
2022-10-07T01:13:05.497Z,14.78
2022-10-07T01:15:46.640Z,14.80
2022-10-07T01:18:21.542Z,14.61
2022-10-07T01:20:59.411Z,14.61
2022-10-07T01:23:32.787Z,14.57
2022-10-07T01:26:11.442Z,14.66
2022-10-07T01:28:49.192Z,14.57
2022-10-07T01:31:21.249Z,14.51
2022-10-07T01:33:53.811Z,14.51
2022-10-07T01:36:25.786Z,14.46
2022-10-07T01:38:59.568Z,14.49
2022-10-07T01:41:32.762Z,14.61
2022-10-07T01:44:02.773Z,14.77
2022-10-07T01:46:33.723Z,14.77
2022-10-07T01:49:07.340Z,14.69
2022-10-07T01:51:36.895Z,14.45
2022-10-07T01:54:21.550Z,14.48
2022-10-07T01:56:56.212Z,14.43
2022-10-07T01:59:46.578Z,14.43
2022-10-07T02:02:24.589Z,14.46
2022-10-07T02:04:57.640Z,14.50
2022-10-07T02:07:52.268Z,14.50
2022-10-07T02:10:41.985Z,14.59
2022-10-07T02:13:14.063Z,14.55
2022-10-07T02:16:05.808Z,14.43
2022-10-07T02:18:38.022Z,14.26
2022-10-07T02:21:12.316Z,14.03
2022-10-07T02:23:44.169Z,14.25
2022-10-07T02:26:16.465Z,14.22
2022-10-07T02:28:48.380Z,14.35
2022-10-07T02:31:20.010Z,14.35
2022-10-07T02:33:50.961Z,14.37
2022-10-07T02:36:23.636Z,14.43
2022-10-07T02:38:53.316Z,14.41
2022-10-07T02:41:36.872Z,14.32
2022-10-07T02:44:25.469Z,14.32
2022-10-07T02:46:57.437Z,14.04
2022-10-07T02:49:29.868Z,14.20
2022-10-07T02:52:07.793Z,14.23
2022-10-07T02:54:43.046Z,14.26
2022-10-07T02:57:14.964Z,14.26
2022-10-07T02:59:45.328Z,14.24
2022-10-07T03:02:17.202Z,14.26
2022-10-07T03:04:46.546Z,14.21
2022-10-07T03:07:15.726Z,14.21
2022-10-07T03:09:45.193Z,14.21
2022-10-07T03:12:14.234Z,14.21
2022-10-07T03:14:44.908Z,14.39
2022-10-07T03:17:13.957Z,14.23
2022-10-07T03:19:43.701Z,14.23
2022-10-07T03:22:13.227Z,13.95
2022-10-07T03:24:42.852Z,14.07
2022-10-07T03:27:11.889Z,14.33
2022-10-07T03:29:41.013Z,14.33
2022-10-07T03:32:11.184Z,14.18
2022-10-07T03:34:40.838Z,14.21
2022-10-07T03:37:10.076Z,14.21
2022-10-07T03:39:39.244Z,14.23
2022-10-07T03:42:10.689Z,14.21
2022-10-07T03:44:39.898Z,13.98
2022-10-07T03:47:12.082Z,14.16
2022-10-07T03:49:41.875Z,14.34
2022-10-07T03:52:10.938Z,14.43
2022-10-07T03:54:40.379Z,14.54
2022-10-07T03:57:10.997Z,14.60
2022-10-07T03:59:41.245Z,14.87
2022-10-07T04:02:10.322Z,15.07
2022-10-07T04:04:39.440Z,15.51
2022-10-07T04:07:08.424Z,15.95
2022-10-07T04:09:37.474Z,16.45
2022-10-07T04:12:07.575Z,16.88
2022-10-07T04:14:36.536Z,17.50
2022-10-07T04:17:05.566Z,17.69
2022-10-07T04:19:35.728Z,18.55
2022-10-07T04:22:08.846Z,18.55
2022-10-07T04:24:37.258Z,19.05
2022-10-07T04:27:06.383Z,19.05
2022-10-07T04:29:39.017Z,19.53
2022-10-07T04:32:06.132Z,19.96
2022-10-07T04:34:35.252Z,20.39
2022-10-07T04:37:05.838Z,20.89
2022-10-07T04:39:59.167Z,21.55
2022-10-07T04:42:05.626Z,22.48
2022-10-07T04:44:34.615Z,23.58
2022-10-07T04:47:05.346Z,23.58
2022-10-07T04:49:34.441Z,21.87
2022-10-07T04:52:03.638Z,21.54
2022-10-07T04:54:34.456Z,21.88
2022-10-07T04:57:03.521Z,22.20
2022-10-07T04:59:34.410Z,20.97
2022-10-07T05:02:03.544Z,21.58
2022-10-07T05:04:32.730Z,21.58
2022-10-07T05:07:01.712Z,22.01
2022-10-07T05:09:30.773Z,22.01
2022-10-07T05:11:59.864Z,22.18
2022-10-07T05:14:28.838Z,21.94
2022-10-07T05:16:57.831Z,21.94
2022-10-07T05:19:26.850Z,22.48
2022-10-07T05:21:55.907Z,23.34
2022-10-07T05:24:24.840Z,23.08
2022-10-07T05:26:54.785Z,23.08
2022-10-07T05:29:24.451Z,23.08
2022-10-07T05:31:53.779Z,23.78
2022-10-07T05:34:22.984Z,24.66
2022-10-07T05:36:51.972Z,24.66
2022-10-07T05:39:24.076Z,24.35
2022-10-07T05:41:53.130Z,24.08
2022-10-07T05:44:22.271Z,24.40
2022-10-07T05:46:51.325Z,24.50
2022-10-07T05:49:20.457Z,24.50
2022-10-07T05:51:49.676Z,24.19
2022-10-07T05:54:20.645Z,23.72
2022-10-07T05:56:49.744Z,23.72
2022-10-07T05:59:19.300Z,24.71
2022-10-07T06:01:48.389Z,24.17
2022-10-07T06:04:19.444Z,24.17
2022-10-07T06:06:48.463Z,25.32
2022-10-07T06:09:35.767Z,25.29
2022-10-07T06:12:22.902Z,25.72
2022-10-07T06:14:52.447Z,25.72
2022-10-07T06:17:21.481Z,26.47
2022-10-07T06:19:50.414Z,26.47
2022-10-07T06:22:19.365Z,25.44
2022-10-07T06:24:48.399Z,25.67
2022-10-07T06:27:17.286Z,25.67
2022-10-07T06:29:46.349Z,25.43
2022-10-07T06:32:15.367Z,25.13
2022-10-07T06:34:45.399Z,25.38
2022-10-07T06:37:14.463Z,25.58
2022-10-07T06:39:43.480Z,24.81
2022-10-07T06:42:12.598Z,26.95
2022-10-07T06:44:43.174Z,26.95
2022-10-07T06:47:12.229Z,26.23
2022-10-07T06:49:41.452Z,26.23
2022-10-07T06:52:10.515Z,26.09
2022-10-07T06:54:39.591Z,26.33
2022-10-07T06:57:33.117Z,26.74
2022-10-07T06:59:39.350Z,26.74
2022-10-07T07:02:08.398Z,27.69
2022-10-07T07:04:37.477Z,27.69
2022-10-07T07:07:06.708Z,26.66
2022-10-07T07:09:35.946Z,27.01
2022-10-07T07:12:04.992Z,26.99
2022-10-07T07:14:35.604Z,26.99
2022-10-07T07:17:04.725Z,27.89
2022-10-07T07:19:33.872Z,27.89
2022-10-07T07:22:02.917Z,28.53
2022-10-07T07:24:31.918Z,28.65
2022-10-07T07:27:01.023Z,27.55
2022-10-07T07:29:30.110Z,27.55
2022-10-07T07:32:00.315Z,26.70
2022-10-07T07:34:30.608Z,28.44
2022-10-07T07:36:59.702Z,28.44
2022-10-07T07:39:28.679Z,28.42
2022-10-07T07:41:57.667Z,28.56
2022-10-07T07:44:31.281Z,28.00
2022-10-07T07:46:58.516Z,29.22
2022-10-07T07:49:29.291Z,28.27
2022-10-07T07:51:58.902Z,28.27
2022-10-07T07:54:28.608Z,28.01
2022-10-07T07:56:58.707Z,27.73
2022-10-07T07:59:27.712Z,29.52
2022-10-07T08:01:56.729Z,29.52
2022-10-07T08:04:26.190Z,29.90
2022-10-07T08:06:55.831Z,28.32
2022-10-07T08:09:25.018Z,28.32
2022-10-07T08:11:54.083Z,27.90
2022-10-07T08:14:23.616Z,27.35
2022-10-07T08:16:53.846Z,29.65
2022-10-07T08:19:22.822Z,29.65
2022-10-07T08:21:52.583Z,29.98
2022-10-07T08:24:23.193Z,29.98
2022-10-07T08:26:53.885Z,28.44
2022-10-07T08:29:23.295Z,28.44
2022-10-07T08:31:52.823Z,28.44
2022-10-07T08:34:21.841Z,28.59
2022-10-07T08:36:52.128Z,28.93
2022-10-07T08:39:21.180Z,28.93
2022-10-07T08:41:59.029Z,28.22
2022-10-07T08:44:37.022Z,28.28
2022-10-07T08:47:27.209Z,28.28
2022-10-07T08:50:08.366Z,28.06
2022-10-07T08:52:46.308Z,28.49
2022-10-07T08:55:30.192Z,28.49
2022-10-07T08:58:31.286Z,29.10
2022-10-07T09:01:12.325Z,29.10
2022-10-07T09:03:52.988Z,28.88
2022-10-07T09:06:31.127Z,28.88
2022-10-07T09:09:03.237Z,29.43
2022-10-07T09:11:34.308Z,28.30
2022-10-07T09:14:06.170Z,29.59
2022-10-07T09:16:42.332Z,29.99
2022-10-07T09:19:20.111Z,29.99
2022-10-07T09:21:51.879Z,29.22
2022-10-07T09:24:29.643Z,29.22
2022-10-07T09:27:05.259Z,28.22
2022-10-07T09:29:34.391Z,27.95
2022-10-07T09:32:03.518Z,28.15
2022-10-07T09:34:33.429Z,29.20
2022-10-07T09:37:21.092Z,29.41
2022-10-07T09:39:52.854Z,29.41
2022-10-07T09:42:28.630Z,27.67
2022-10-07T09:45:00.549Z,26.72
2022-10-07T09:47:32.362Z,26.72
2022-10-07T09:50:01.332Z,27.25
2022-10-07T09:52:34.344Z,28.23
2022-10-07T09:55:27.039Z,28.23
2022-10-07T09:58:04.074Z,27.92
2022-10-07T10:00:34.370Z,27.65
2022-10-07T10:03:10.169Z,26.42
2022-10-07T10:05:44.853Z,26.71
2022-10-07T10:08:16.776Z,26.71
2022-10-07T10:10:54.279Z,26.56
2022-10-07T10:13:42.400Z,26.37
2022-10-07T10:16:33.922Z,26.37
2022-10-07T10:19:08.519Z,25.90
2022-10-07T10:21:42.666Z,25.54
2022-10-07T10:24:14.690Z,25.54
2022-10-07T10:26:59.053Z,24.82
2022-10-07T10:29:31.104Z,24.82
2022-10-07T10:32:05.991Z,24.63
2022-10-07T10:34:52.704Z,24.85
2022-10-07T10:37:30.209Z,23.97
2022-10-07T10:40:19.119Z,23.93
2022-10-07T10:42:53.535Z,24.28
2022-10-07T10:45:40.952Z,24.28
2022-10-07T10:48:29.480Z,24.33
2022-10-07T10:51:01.448Z,24.33
2022-10-07T10:53:48.336Z,23.98
2022-10-07T10:56:52.301Z,23.40
2022-10-07T10:59:32.945Z,23.53
2022-10-07T11:02:10.948Z,23.63
2022-10-07T11:04:50.303Z,23.63
2022-10-07T11:07:25.111Z,23.90
2022-10-07T11:09:57.372Z,23.90
2022-10-07T11:12:44.905Z,24.17
2022-10-07T11:15:16.978Z,23.58
2022-10-07T11:17:48.113Z,23.91
2022-10-07T11:20:42.377Z,23.91
2022-10-07T11:23:30.215Z,23.84
2022-10-07T11:26:02.106Z,23.84
2022-10-07T11:28:33.833Z,23.59
2022-10-07T11:31:16.044Z,23.75
2022-10-07T11:34:13.891Z,23.50
2022-10-07T11:36:52.366Z,23.50
2022-10-07T11:39:22.563Z,23.79
2022-10-07T11:42:09.683Z,23.83
2022-10-07T11:44:50.864Z,23.96
2022-10-07T11:47:22.728Z,23.40
2022-10-07T11:50:00.898Z,23.32
2022-10-07T11:52:37.201Z,23.50
2022-10-07T11:55:25.026Z,23.50
2022-10-07T11:57:59.801Z,23.86
2022-10-07T12:00:32.618Z,23.86
2022-10-07T12:03:16.412Z,23.30
2022-10-07T12:05:54.672Z,23.56
2022-10-07T12:08:32.237Z,24.22
2022-10-07T12:11:16.576Z,24.22
2022-10-07T12:13:51.053Z,23.79
2022-10-07T12:16:30.360Z,23.73
2022-10-07T12:19:11.418Z,23.73
2022-10-07T12:22:04.122Z,23.84
2022-10-07T12:24:38.637Z,23.84
2022-10-07T12:27:20.029Z,23.67
2022-10-07T12:30:04.751Z,23.57
2022-10-07T12:32:56.561Z,23.48
2022-10-07T12:35:37.634Z,23.48
2022-10-07T12:38:18.116Z,23.32
2022-10-07T12:41:09.392Z,23.20
2022-10-07T12:43:47.138Z,23.42
2022-10-07T12:46:21.476Z,23.42
2022-10-07T12:48:53.340Z,23.42
2022-10-07T12:51:28.074Z,23.55
2022-10-07T12:54:00.001Z,23.55
2022-10-07T12:56:31.315Z,23.03
2022-10-07T12:59:27.306Z,23.18
2022-10-07T13:02:11.763Z,23.18
2022-10-07T13:05:05.888Z,22.73
2022-10-07T13:07:45.140Z,22.76
2022-10-07T13:10:33.386Z,22.76
2022-10-07T13:13:20.513Z,23.08
2022-10-07T13:15:55.457Z,22.88
2022-10-07T13:18:27.306Z,22.88
2022-10-07T13:21:11.190Z,23.02
2022-10-07T13:23:40.752Z,22.87
2022-10-07T13:26:11.229Z,22.87
2022-10-07T13:28:52.197Z,22.64
2022-10-07T13:31:24.435Z,22.84
2022-10-07T13:33:54.844Z,22.84
2022-10-07T13:36:33.818Z,22.70
2022-10-07T13:39:21.952Z,22.35
2022-10-07T13:41:55.716Z,22.53
2022-10-07T13:44:31.287Z,22.28
2022-10-07T13:47:06.578Z,22.18
2022-10-07T13:49:38.566Z,22.22
2022-10-07T13:52:10.468Z,22.53
2022-10-07T13:54:39.613Z,22.37
2022-10-07T14:02:08.384Z,21.79
2022-10-07T14:04:40.815Z,22.15
2022-10-07T14:07:16.125Z,22.15
2022-10-07T14:09:48.008Z,22.04
2022-10-07T14:12:31.625Z,21.93
2022-10-07T14:15:15.486Z,21.92
2022-10-07T14:17:49.932Z,21.92
2022-10-07T14:20:25.162Z,22.03
2022-10-07T14:23:00.006Z,22.26
2022-10-07T14:25:35.209Z,22.26
2022-10-07T14:28:10.127Z,22.18
2022-10-07T14:30:59.227Z,22.09
2022-10-07T14:33:52.362Z,21.81
2022-10-07T14:36:23.187Z,21.81
2022-10-07T14:38:55.655Z,21.79
2022-10-07T14:41:27.447Z,21.67
2022-10-07T14:43:58.667Z,21.67
2022-10-07T14:46:29.817Z,21.91
2022-10-07T14:48:58.811Z,21.91
2022-10-07T14:51:29.786Z,21.74
2022-10-07T14:54:05.348Z,21.52
2022-10-07T14:56:38.385Z,21.70
2022-10-07T14:59:10.293Z,21.50
2022-10-07T15:01:39.118Z,21.50
2022-10-07T15:04:08.301Z,21.40
2022-10-07T15:06:38.339Z,21.40
2022-10-07T15:09:07.338Z,21.36
2022-10-07T15:11:36.280Z,21.36
2022-10-07T15:14:05.322Z,21.28
2022-10-07T15:16:34.561Z,21.07
2022-10-07T15:19:04.108Z,21.09
2022-10-07T15:21:33.244Z,21.09
2022-10-07T15:24:05.348Z,20.71
2022-10-07T15:26:34.462Z,20.71
2022-10-07T15:29:04.335Z,20.84
2022-10-07T15:31:33.410Z,20.88
2022-10-07T15:34:02.524Z,20.88
2022-10-07T15:36:32.245Z,20.68
2022-10-07T15:39:02.956Z,20.64
2022-10-07T15:41:37.268Z,20.64
2022-10-07T15:44:09.011Z,20.30
2022-10-07T15:46:38.652Z,20.47
2022-10-07T15:49:07.845Z,20.47
2022-10-07T15:51:36.936Z,20.14
2022-10-07T15:54:07.539Z,19.95
2022-10-07T15:56:36.497Z,19.95
2022-10-07T15:59:05.598Z,19.94
2022-10-07T16:01:34.752Z,20.04
2022-10-07T16:04:05.736Z,19.86
2022-10-07T16:06:37.101Z,19.86
2022-10-07T16:09:07.126Z,19.65
2022-10-07T16:11:36.293Z,19.50
2022-10-07T16:14:05.793Z,19.39
2022-10-07T16:16:35.004Z,19.35
2022-10-07T16:19:05.067Z,19.33
2022-10-07T16:21:36.731Z,19.33
2022-10-07T16:24:17.914Z,19.20
2022-10-07T16:26:50.494Z,19.29
2022-10-07T16:29:39.735Z,19.35
2022-10-07T16:32:10.901Z,19.35
2022-10-07T16:34:43.242Z,19.16
2022-10-07T16:37:13.050Z,18.88
2022-10-07T16:39:41.976Z,18.76
2022-10-07T16:42:10.997Z,18.59
2022-10-07T16:44:40.054Z,18.71
2022-10-07T16:47:09.052Z,18.67
2022-10-07T16:49:38.092Z,18.31
2022-10-07T16:52:07.006Z,18.40
2022-10-07T16:54:36.169Z,18.40
2022-10-07T16:57:05.187Z,18.19
2022-10-07T16:59:34.191Z,18.43
2022-10-07T17:02:04.932Z,18.42
2022-10-07T17:04:33.973Z,18.39
2022-10-07T17:07:03.867Z,18.16
2022-10-07T17:09:32.864Z,18.37
2022-10-07T17:12:02.291Z,18.44
2022-10-07T17:14:32.922Z,18.29
2022-10-07T17:17:02.001Z,18.29
2022-10-07T17:19:30.953Z,18.26
2022-10-07T17:22:00.110Z,18.09
2022-10-07T17:24:30.186Z,18.09
2022-10-07T17:26:59.131Z,18.19
2022-10-07T17:29:29.836Z,18.39
2022-10-07T17:31:58.806Z,18.14
2022-10-07T17:34:27.854Z,18.14
2022-10-07T17:36:58.543Z,18.33
2022-10-07T17:39:27.729Z,18.33
2022-10-07T17:41:57.685Z,18.23
2022-10-07T17:44:27.147Z,18.23
2022-10-07T17:46:57.811Z,18.42
2022-10-07T17:49:27.150Z,18.30
2022-10-07T17:51:57.445Z,18.30
2022-10-07T17:54:27.190Z,18.29
2022-10-07T17:56:56.272Z,18.29
2022-10-07T17:59:25.904Z,18.09
2022-10-07T18:01:54.864Z,18.09
2022-10-07T18:04:25.205Z,18.57
2022-10-07T18:06:54.516Z,18.38
2022-10-07T18:09:24.356Z,18.63
2022-10-07T18:12:11.024Z,18.34
2022-10-07T18:14:57.584Z,18.50
2022-10-07T18:17:26.734Z,18.50
2022-10-07T18:19:55.715Z,18.62
2022-10-07T18:22:24.832Z,18.66
2022-10-07T18:24:55.484Z,18.70
2022-10-07T18:27:25.311Z,18.58
2022-10-07T18:29:55.090Z,18.76
2022-10-07T18:32:25.365Z,18.82
2022-10-07T18:34:54.465Z,18.82
2022-10-07T18:37:24.093Z,18.65
2022-10-07T18:39:53.262Z,18.67
2022-10-07T18:42:22.368Z,18.67
2022-10-07T18:44:52.563Z,18.64
2022-10-07T18:47:21.947Z,18.48
2022-10-07T18:49:52.156Z,18.48
2022-10-07T18:52:21.079Z,18.64
2022-10-07T18:54:50.151Z,18.64
2022-10-07T18:57:19.932Z,18.32
2022-10-07T18:59:48.987Z,18.47
2022-10-07T19:02:18.292Z,18.47
2022-10-07T19:04:47.206Z,18.52
2022-10-07T19:07:16.300Z,18.42
2022-10-07T19:09:45.393Z,18.42
2022-10-07T19:12:21.702Z,18.21
2022-10-07T19:14:51.821Z,18.09
2022-10-07T19:17:20.912Z,18.33
2022-10-07T19:19:50.027Z,18.21
2022-10-07T19:22:19.561Z,18.21
2022-10-07T19:25:06.347Z,18.00
2022-10-07T19:27:35.367Z,18.00
2022-10-07T19:30:05.660Z,18.26
2022-10-07T19:32:34.730Z,17.87
2022-10-07T19:35:04.521Z,18.08
2022-10-07T19:37:33.515Z,17.89
2022-10-07T19:40:02.615Z,18.01
2022-10-07T19:42:31.832Z,17.86
2022-10-07T19:45:00.826Z,17.76
2022-10-07T19:47:30.471Z,17.76
2022-10-07T19:49:59.576Z,17.93
2022-10-07T19:52:28.658Z,17.93
2022-10-07T19:54:57.710Z,18.02
2022-10-07T19:57:26.746Z,17.91
2022-10-07T19:59:55.869Z,17.91
2022-10-07T20:02:24.946Z,17.81
2022-10-07T20:04:54.358Z,17.93
2022-10-07T20:07:23.987Z,17.93
2022-10-07T20:09:53.013Z,17.87
2022-10-07T20:12:22.091Z,17.71
2022-10-07T20:14:51.441Z,17.57
2022-10-07T20:17:20.588Z,17.57
2022-10-07T20:19:49.595Z,17.56
2022-10-07T20:22:18.692Z,17.65
2022-10-07T20:24:47.696Z,17.70
2022-10-07T20:27:16.650Z,17.36
2022-10-07T20:30:02.578Z,17.55
2022-10-07T20:32:35.701Z,17.35
2022-10-07T20:35:06.465Z,17.35
2022-10-07T20:37:35.501Z,17.31
2022-10-07T20:40:22.785Z,16.80
2022-10-07T20:42:53.068Z,17.24
2022-10-07T20:45:22.631Z,16.94
2022-10-07T20:47:53.247Z,17.07
2022-10-07T20:50:22.259Z,17.03
2022-10-07T20:52:51.366Z,16.84
2022-10-07T20:55:20.387Z,17.06
2022-10-07T20:57:51.465Z,17.01
2022-10-07T21:00:20.401Z,17.02
2022-10-07T21:02:50.239Z,16.81
2022-10-07T21:05:19.813Z,16.81
2022-10-07T21:07:53.805Z,16.89
2022-10-07T21:10:19.693Z,16.94
2022-10-07T21:12:49.213Z,16.82
2022-10-07T21:15:20.107Z,16.82
2022-10-07T21:17:49.127Z,16.63
2022-10-07T21:20:18.309Z,16.61
2022-10-07T21:22:48.860Z,16.75
2022-10-07T21:25:18.350Z,16.45
2022-10-07T21:27:47.378Z,16.45
2022-10-07T21:30:16.341Z,16.36
2022-10-07T21:32:45.684Z,16.62
2022-10-07T21:35:14.937Z,16.53
2022-10-07T21:37:43.972Z,16.44
2022-10-07T21:40:13.018Z,16.44
2022-10-07T21:42:42.068Z,16.62
2022-10-07T21:45:12.289Z,16.54
2022-10-07T21:47:41.224Z,16.39
2022-10-07T21:50:11.635Z,16.20
2022-10-07T21:52:42.515Z,16.47
2022-10-07T21:55:11.863Z,16.27
2022-10-07T21:57:42.163Z,16.26
2022-10-07T22:00:16.179Z,16.15
2022-10-07T22:02:46.679Z,16.15
2022-10-07T22:05:16.428Z,16.07
2022-10-07T22:08:03.231Z,16.26
2022-10-07T22:10:32.746Z,16.36
2022-10-07T22:13:01.928Z,16.31
2022-10-07T22:15:35.266Z,16.16
2022-10-07T22:18:05.009Z,16.15
2022-10-07T22:20:35.633Z,16.15
2022-10-07T22:23:04.649Z,16.45
2022-10-07T22:25:33.643Z,15.85
2022-10-07T22:28:03.035Z,16.14
2022-10-07T22:30:32.201Z,16.20
2022-10-07T22:33:01.209Z,16.22
2022-10-07T22:35:34.668Z,16.17
2022-10-07T22:38:03.866Z,16.17
2022-10-07T22:40:33.049Z,16.27
2022-10-07T22:43:02.089Z,16.27
2022-10-07T22:45:31.193Z,16.03
2022-10-07T22:48:00.409Z,16.11
2022-10-07T22:50:29.379Z,16.07
2022-10-07T22:52:58.409Z,16.22
2022-10-07T22:55:27.605Z,16.17
2022-10-07T22:57:56.676Z,16.05
2022-10-07T23:00:28.142Z,15.79
2022-10-07T23:03:02.678Z,15.78
2022-10-07T23:05:34.441Z,15.94
2022-10-07T23:08:04.966Z,15.94
2022-10-07T23:10:34.039Z,15.93
2022-10-07T23:13:03.848Z,15.78
2022-10-07T23:15:33.051Z,16.08
2022-10-07T23:18:02.226Z,16.18
2022-10-07T23:20:31.276Z,16.08
2022-10-07T23:23:00.356Z,15.79
2022-10-07T23:25:29.401Z,15.79
2022-10-07T23:27:58.472Z,15.89
2022-10-07T23:30:27.534Z,15.75
2022-10-07T23:32:56.655Z,16.31
2022-10-07T23:35:25.638Z,16.17
2022-10-07T23:37:56.340Z,16.01
2022-10-07T23:40:25.377Z,16.06
2022-10-07T23:42:54.345Z,15.88
2022-10-07T23:45:23.338Z,15.92
2022-10-07T23:47:52.450Z,15.91
2022-10-07T23:50:24.187Z,15.91
2022-10-07T23:52:53.162Z,15.83
2022-10-07T23:55:22.123Z,15.75
2022-10-07T23:57:51.197Z,16.07
